Time;durP1;ratioP1;P1;durP2;ratioP2;P2;SDS_P1;SDS_P2;PMS_P1;PMS_P2;Temp;Humidity;BMP_temperature;BMP_pressure;BME280_temperature;BME280_humidity;BME280_pressure;Samples;Min_cycle;Max_cycle;Signal;HPM_P1;HPM_P2
2023/12/20 00:00:12;;;;;;;2.65;1.90;;;;;;;5.76;100.00;99534.28;336807;28;4620;-73
2023/12/20 00:00:24;;;;;;;2.28;1.33;;;;;;;5.75;100.00;99542.88;331828;28;12134;-74
2023/12/20 00:00:37;;;;;;;2.45;1.50;;;;;;;5.73;100.00;99540.31;335707;28;4690;-74
2023/12/20 00:00:49;;;;;;;2.30;1.63;;;;;;;5.74;100.00;99530.88;332501;28;18153;-74
2023/12/20 00:01:02;;;;;;;2.80;1.45;;;;;;;5.72;100.00;99538.63;335416;29;6492;-74
2023/12/20 00:01:14;;;;;;;2.72;1.40;;;;;;;5.70;100.00;99539.53;332333;29;18075;-74
2023/12/20 00:01:26;;;;;;;1.92;1.25;;;;;;;5.68;100.00;99536.13;329987;29;4687;-74
2023/12/20 00:01:38;;;;;;;2.08;1.08;;;;;;;5.64;100.00;99537.91;335538;29;4706;-74
2023/12/20 00:01:51;;;;;;;3.00;1.20;;;;;;;5.63;100.00;99536.19;332176;28;18129;-74
2023/12/20 00:02:03;;;;;;;4.13;1.77;;;;;;;5.64;100.00;99534.47;335013;29;4745;-74
2023/12/20 00:02:15;;;;;;;3.85;2.28;;;;;;;5.64;100.00;99534.47;333007;28;18047;-74
2023/12/20 00:02:27;;;;;;;3.92;2.53;;;;;;;5.65;100.00;99536.16;336275;29;4522;-74
2023/12/20 00:02:39;;;;;;;2.75;1.98;;;;;;;5.65;100.00;99531.84;332376;29;17719;-73
2023/12/20 00:02:51;;;;;;;1.80;1.33;;;;;;;5.66;100.00;99540.47;334962;28;4697;-74
2023/12/20 00:03:04;;;;;;;1.58;1.10;;;;;;;5.69;100.00;99542.97;335551;28;5364;-74
2023/12/20 00:03:16;;;;;;;2.22;1.52;;;;;;;5.66;100.00;99540.47;332696;28;18946;-74
2023/12/20 00:03:28;;;;;;;2.00;1.40;;;;;;;5.69;100.00;99537.81;336348;28;5355;-74
2023/12/20 00:03:52;;;;;;;2.20;1.38;;;;;;;5.70;100.00;99544.69;331705;28;18278;-74
2023/12/20 00:04:04;;;;;;;2.65;1.52;;;;;;;5.73;100.00;99539.47;335579;28;4566;-74
2023/12/20 00:04:16;;;;;;;2.60;1.30;;;;;;;5.69;100.00;99542.97;332252;28;18051;-74
2023/12/20 00:04:28;;;;;;;1.55;1.00;;;;;;;5.66;100.00;99535.31;330547;28;5025;-74
2023/12/20 00:04:40;;;;;;;1.98;1.00;;;;;;;5.61;100.00;99543.09;333892;28;17205;-74
2023/12/20 00:04:52;;;;;;;2.33;1.20;;;;;;;5.65;100.00;99531.84;334792;28;4530;-74
2023/12/20 00:05:05;;;;;;;4.28;1.52;;;;;;;5.65;100.00;99538.75;335975;28;4546;-74
2023/12/20 00:05:17;;;;;;;4.72;1.73;;;;;;;5.63;100.00;99543.06;333067;28;18042;-74
2023/12/20 00:05:31;;;;;;;4.82;1.40;;;;;;;5.63;100.00;99541.34;336384;28;5436;-74
2023/12/20 00:05:43;;;;;;;4.03;1.38;;;;;;;5.58;100.00;99538.81;331511;28;10674;-74
2023/12/20 00:05:55;;;;;;;2.05;1.38;;;;;;;5.63;100.00;99540.50;332595;28;19049;-74
2023/12/20 00:06:08;;;;;;;1.52;1.20;;;;;;;5.59;100.00;99548.28;336209;28;4538;-74
2023/12/20 00:06:20;;;;;;;1.25;1.10;;;;;;;5.65;100.00;99541.31;333023;28;13341;-74
2023/12/20 00:06:32;;;;;;;1.33;0.90;;;;;;;5.60;100.00;99539.66;336289;28;4516;-74
2023/12/20 00:06:44;;;;;;;1.48;0.98;;;;;;;5.59;100.00;99530.25;336314;28;4895;-74
2023/12/20 00:06:56;;;;;;;1.83;1.08;;;;;;;5.60;100.00;99541.41;332291;28;18168;-74
2023/12/20 00:07:08;;;;;;;1.77;1.23;;;;;;;5.58;100.00;99541.41;336421;28;5353;-74
2023/12/20 00:07:21;;;;;;;2.00;1.20;;;;;;;5.54;100.00;99538.91;333980;28;5457;-75
2023/12/20 00:07:33;;;;;;;2.17;1.17;;;;;;;5.55;100.00;99527.69;335814;28;4590;-74
2023/12/20 00:07:45;;;;;;;2.08;1.02;;;;;;;5.65;100.00;99529.28;336101;28;4715;-74
2023/12/20 00:07:58;;;;;;;1.92;1.20;;;;;;;5.68;100.00;99541.28;329341;28;17144;-74
2023/12/20 00:08:10;;;;;;;2.22;1.40;;;;;;;5.67;100.00;99540.41;334929;28;4801;-74
2023/12/20 00:08:22;;;;;;;1.92;1.50;;;;;;;5.65;100.00;99543.91;332355;28;17905;-74
2023/12/20 00:08:34;;;;;;;2.08;1.30;;;;;;;5.69;100.00;99537.81;335360;28;4677;-75
2023/12/20 00:08:46;;;;;;;1.90;1.08;;;;;;;5.61;100.00;99535.34;330563;28;6171;-75
2023/12/20 00:08:58;;;;;;;2.00;1.05;;;;;;;5.58;100.00;99535.41;335728;28;5398;-75
2023/12/20 00:09:10;;;;;;;1.70;1.00;;;;;;;5.56;100.00;99535.41;334601;29;4995;-75
2023/12/20 00:09:22;;;;;;;1.30;1.00;;;;;;;5.62;100.00;99541.38;330328;29;19237;-74
2023/12/20 00:09:34;;;;;;;1.70;1.17;;;;;;;5.58;100.00;99543.97;334001;29;4563;-74
2023/12/20 00:09:46;;;;;;;1.80;1.30;;;;;;;5.58;100.00;99535.41;333352;28;16550;-74
2023/12/20 00:09:58;;;;;;;1.83;1.40;;;;;;;5.64;100.00;99524.16;335174;28;4726;-74
2023/12/20 00:10:12;;;;;;;1.88;1.25;;;;;;;5.64;100.00;99544.78;334815;28;4565;-74
2023/12/20 00:10:24;;;;;;;2.25;1.10;;;;;;;5.63;100.00;99532.75;333306;28;17769;-74
2023/12/20 00:10:36;;;;;;;2.13;1.00;;;;;;;5.61;100.00;99540.50;332191;28;18933;-75
2023/12/20 00:10:48;;;;;;;2.20;1.15;;;;;;;5.66;100.00;99537.88;336180;28;4542;-74
2023/12/20 00:11:01;;;;;;;1.77;1.25;;;;;;;5.63;100.00;99530.16;335874;28;4725;-74
2023/12/20 00:11:13;;;;;;;2.05;1.33;;;;;;;5.56;100.00;99537.16;334102;28;17168;-74
2023/12/20 00:11:25;;;;;;;2.42;1.50;;;;;;;5.58;100.00;99531.09;336238;28;5045;-74
2023/12/20 00:11:37;;;;;;;2.95;1.73;;;;;;;5.60;100.00;99539.66;328694;28;4720;-74
2023/12/20 00:11:49;;;;;;;2.47;1.70;;;;;;;5.55;100.00;99541.47;334701;29;5391;-74
2023/12/20 00:12:01;;;;;;;2.05;1.40;;;;;;;5.54;100.00;99537.16;335065;28;4576;-74
2023/12/20 00:12:13;;;;;;;1.50;1.17;;;;;;;5.52;100.00;99535.50;333130;28;18171;-74
2023/12/20 00:12:25;;;;;;;1.40;1.20;;;;;;;5.51;100.00;99539.78;336696;28;4541;-75
2023/12/20 00:12:37;;;;;;;1.40;1.30;;;;;;;5.50;100.00;99532.94;333419;28;4713;-74
2023/12/20 00:12:49;;;;;;;1.52;1.40;;;;;;;5.49;100.00;99546.69;334380;29;4597;-75
2023/12/20 00:13:01;;;;;;;1.80;1.40;;;;;;;5.53;100.00;99542.34;329085;29;4760;-75
2023/12/20 00:13:13;;;;;;;2.25;1.30;;;;;;;5.49;100.00;99536.38;333067;28;18523;-74
2023/12/20 00:13:25;;;;;;;2.30;1.20;;;;;;;5.50;100.00;99532.94;336709;28;5329;-74
2023/12/20 00:13:37;;;;;;;2.25;1.27;;;;;;;5.60;100.00;99546.56;333832;28;18594;-74
2023/12/20 00:13:49;;;;;;;2.03;1.20;;;;;;;5.65;100.00;99536.16;335517;28;5468;-75
2023/12/20 00:14:03;;;;;;;1.48;1.20;;;;;;;5.73;100.00;99532.59;333703;28;16442;-75
2023/12/20 00:14:15;;;;;;;1.30;1.02;;;;;;;5.68;100.00;99538.72;337568;28;5394;-74
2023/12/20 00:14:27;;;;;;;2.40;1.00;;;;;;;5.68;100.00;99536.13;338973;28;6502;-74
2023/12/20 00:14:38;;;;;;;2.92;1.20;;;;;;;5.66;100.00;99535.31;336067;28;17630;-74
2023/12/20 00:14:50;;;;;;;2.50;1.17;;;;;;;5.63;100.00;99545.66;335449;28;4588;-75
2023/12/20 00:15:03;;;;;;;1.90;1.15;;;;;;;5.60;100.00;99526.75;334510;28;16987;-74
2023/12/20 00:15:15;;;;;;;1.92;1.20;;;;;;;5.57;100.00;99539.72;338670;28;5057;-75
2023/12/20 00:15:27;;;;;;;1.50;1.10;;;;;;;5.62;100.00;99542.22;335434;28;13821;-74
2023/12/20 00:15:39;;;;;;;1.80;0.98;;;;;;;5.62;100.00;99541.38;337689;28;5518;-75
2023/12/20 00:15:51;;;;;;;4.30;1.10;;;;;;;5.60;100.00;99538.81;331667;28;5463;-75
2023/12/20 00:16:03;;;;;;;4.00;1.00;;;;;;;5.63;100.00;99543.06;334278;28;13653;-74
2023/12/20 00:16:15;;;;;;;3.63;0.95;;;;;;;5.60;100.00;99537.06;335976;28;4590;-74
2023/12/20 00:16:27;;;;;;;2.10;1.30;;;;;;;5.63;100.00;99541.34;336673;28;4537;-74
2023/12/20 00:16:39;;;;;;;2.28;1.33;;;;;;;5.63;100.00;99545.66;333706;28;18825;-74
2023/12/20 00:16:51;;;;;;;1.90;1.13;;;;;;;5.64;100.00;99534.47;334567;28;4751;-74
2023/12/20 00:17:04;;;;;;;1.48;1.00;;;;;;;5.60;100.00;99543.97;333293;29;18017;-74
2023/12/20 00:17:16;;;;;;;1.58;1.17;;;;;;;5.59;100.00;99537.97;336094;28;4693;-75
2023/12/20 00:17:28;;;;;;;1.75;1.20;;;;;;;5.56;100.00;99537.16;332691;28;4890;-74
2023/12/20 00:17:40;;;;;;;1.83;1.20;;;;;;;5.62;100.00;99541.38;333419;28;5487;-74
2023/12/20 00:17:52;;;;;;;1.67;1.15;;;;;;;5.57;100.00;99539.72;335063;28;5358;-74
2023/12/20 00:18:05;;;;;;;1.38;1.10;;;;;;;5.63;100.00;99533.59;331430;28;13046;-75
2023/12/20 00:18:17;;;;;;;1.42;1.00;;;;;;;5.65;100.00;99541.31;335922;28;4628;-75
2023/12/20 00:18:29;;;;;;;2.13;1.15;;;;;;;5.66;100.00;99537.88;334813;28;5381;-75
2023/12/20 00:18:41;;;;;;;2.70;1.30;;;;;;;5.67;100.00;99530.09;335822;28;5085;-74
2023/12/20 00:18:53;;;;;;;2.33;1.30;;;;;;;5.77;100.00;99535.97;335034;28;4677;-74
2023/12/20 00:19:05;;;;;;;2.63;1.45;;;;;;;5.75;100.00;99530.84;333667;28;18320;-74
2023/12/20 00:19:17;;;;;;;2.30;1.42;;;;;;;5.64;100.00;99534.47;336029;28;4548;-75
2023/12/20 00:19:29;;;;;;;2.63;1.75;;;;;;;5.65;100.00;99547.31;331762;29;13943;-74
2023/12/20 00:19:41;;;;;;;2.85;2.10;;;;;;;5.58;100.00;99536.25;336018;28;4543;-74
2023/12/20 00:19:53;;;;;;;3.25;1.95;;;;;;;5.54;100.00;99534.59;335203;28;5793;-75
2023/12/20 00:20:06;;;;;;;3.08;1.83;;;;;;;5.56;100.00;99538.00;332620;28;17742;-74
2023/12/20 00:20:18;;;;;;;3.42;1.80;;;;;;;5.59;100.00;99537.97;335199;28;5378;-74
2023/12/20 00:20:30;;;;;;;3.45;1.67;;;;;;;5.58;100.00;99536.25;332837;28;18257;-74
2023/12/20 00:20:42;;;;;;;3.60;1.52;;;;;;;5.54;100.00;99532.00;335316;28;5119;-75
2023/12/20 00:20:54;;;;;;;2.60;1.52;;;;;;;5.55;100.00;99536.31;335308;29;9114;-75
2023/12/20 00:21:06;;;;;;;2.13;1.52;;;;;;;5.57;100.00;99539.72;332821;28;17937;-74
2023/12/20 00:21:19;;;;;;;1.77;1.38;;;;;;;5.58;100.00;99532.84;336396;28;5111;-74
2023/12/20 00:21:31;;;;;;;1.52;1.23;;;;;;;5.58;100.00;99533.66;332431;28;13167;-74
2023/12/20 00:21:43;;;;;;;1.60;1.10;;;;;;;5.59;100.00;99543.13;329684;28;4838;-75
2023/12/20 00:21:55;;;;;;;1.88;1.15;;;;;;;5.61;100.00;99537.94;333899;28;5061;-75
2023/12/20 00:22:07;;;;;;;2.35;1.45;;;;;;;5.59;100.00;99539.66;336340;28;5345;-74
2023/12/20 00:22:19;;;;;;;2.22;1.60;;;;;;;5.56;100.00;99543.16;336089;28;4564;-74
2023/12/20 00:22:31;;;;;;;2.38;1.50;;;;;;;5.54;100.00;99529.44;331806;28;16430;-75
2023/12/20 00:22:43;;;;;;;2.30;1.50;;;;;;;5.54;100.00;99539.75;334593;29;5305;-74
2023/12/20 00:23:00;;;;;;;2.30;1.48;;;;;;;5.53;100.00;99543.22;332909;28;12762;-75
2023/12/20 00:23:12;;;;;;;3.00;1.50;;;;;;;5.66;100.00;99528.41;335291;28;17204;-74
2023/12/20 00:23:24;;;;;;;3.30;1.48;;;;;;;5.65;100.00;99531.84;334890;28;4605;-74
2023/12/20 00:23:36;;;;;;;2.28;1.45;;;;;;;5.63;100.00;99532.75;332913;28;16271;-74
2023/12/20 00:23:48;;;;;;;2.50;1.60;;;;;;;5.60;100.00;99529.34;335370;28;5328;-75
2023/12/20 00:24:00;;;;;;;1.95;1.48;;;;;;;5.62;100.00;99531.06;334778;28;4783;-74
2023/12/20 00:24:12;;;;;;;1.65;1.33;;;;;;;5.64;100.00;99527.59;331490;28;18349;-75
2023/12/20 00:24:24;;;;;;;1.75;1.20;;;;;;;5.64;100.00;99530.16;335178;28;6124;-75
2023/12/20 00:24:36;;;;;;;2.00;1.13;;;;;;;5.65;100.00;99525.84;335377;28;16171;-74
2023/12/20 00:24:48;;;;;;;1.70;0.98;;;;;;;5.67;100.00;99529.25;333434;28;18379;-75
2023/12/20 00:25:00;;;;;;;1.35;0.93;;;;;;;5.70;100.00;99524.91;336667;28;5523;-74
2023/12/20 00:25:12;;;;;;;1.25;0.93;;;;;;;5.68;100.00;99526.66;333235;28;18656;-74
2023/12/20 00:25:24;;;;;;;1.63;1.00;;;;;;;5.68;100.00;99526.66;336158;28;4549;-75
2023/12/20 00:25:37;;;;;;;1.80;1.20;;;;;;;5.67;100.00;99529.25;333574;28;18891;-74
2023/12/20 00:25:49;;;;;;;1.60;1.20;;;;;;;5.66;100.00;99530.16;336996;28;4527;-75
2023/12/20 00:26:01;;;;;;;1.88;1.10;;;;;;;5.68;100.00;99526.66;337142;28;5106;-74
2023/12/20 00:26:13;;;;;;;2.17;0.98;;;;;;;5.66;100.00;99519.84;329090;28;16917;-74
2023/12/20 00:26:25;;;;;;;2.10;0.98;;;;;;;5.63;100.00;99527.59;336857;28;4819;-74
2023/12/20 00:26:37;;;;;;;2.55;1.10;;;;;;;5.60;100.00;99525.94;333858;28;18060;-74
2023/12/20 00:26:49;;;;;;;2.33;1.20;;;;;;;5.64;100.00;99526.75;335406;29;4777;-75
2023/12/20 00:27:02;;;;;;;2.00;1.17;;;;;;;5.62;100.00;99526.75;335639;28;5178;-74
2023/12/20 00:27:14;;;;;;;2.53;1.40;;;;;;;5.63;100.00;99530.16;332270;28;18259;-74
2023/12/20 00:27:26;;;;;;;2.50;1.40;;;;;;;5.59;100.00;99525.06;335686;28;4753;-74
2023/12/20 00:27:38;;;;;;;2.08;1.38;;;;;;;5.64;100.00;99529.31;328096;28;18289;-74
2023/12/20 00:27:50;;;;;;;1.98;1.08;;;;;;;5.63;100.00;99532.75;335294;28;4606;-74
2023/12/20 00:28:03;;;;;;;2.00;1.05;;;;;;;5.65;100.00;99531.00;332929;28;13663;-75
2023/12/20 00:28:15;;;;;;;1.88;1.00;;;;;;;5.65;100.00;99528.44;334795;28;4571;-74
2023/12/20 00:28:27;;;;;;;1.75;1.10;;;;;;;5.64;100.00;99529.31;333314;28;5519;-74
2023/12/20 00:28:39;;;;;;;2.30;1.30;;;;;;;5.67;100.00;99529.25;335160;28;5446;-74
2023/12/20 00:28:51;;;;;;;3.00;1.42;;;;;;;5.64;100.00;99517.28;334510;28;4813;-74
2023/12/20 00:29:03;;;;;;;3.28;1.33;;;;;;;5.61;100.00;99519.88;334044;28;5440;-74
2023/12/20 00:29:15;;;;;;;4.55;1.20;;;;;;;5.60;100.00;99528.50;331118;28;4697;-74
2023/12/20 00:29:27;;;;;;;3.90;1.10;;;;;;;5.62;100.00;99519.03;335344;28;4726;-74
2023/12/20 00:29:39;;;;;;;1.75;1.00;;;;;;;5.64;100.00;99526.75;334653;28;4541;-74
2023/12/20 00:29:51;;;;;;;1.77;1.13;;;;;;;5.65;100.00;99525.84;336550;28;4842;-74
2023/12/20 00:30:03;;;;;;;1.52;1.10;;;;;;;5.64;100.00;99531.91;334507;28;12922;-74
2023/12/20 00:30:15;;;;;;;1.30;0.93;;;;;;;5.62;100.00;99531.06;336716;28;5282;-74
2023/12/20 00:30:27;;;;;;;1.20;0.80;;;;;;;5.60;100.00;99528.50;335677;28;4547;-75
2023/12/20 00:30:39;;;;;;;1.10;0.90;;;;;;;5.60;100.00;99519.03;334296;28;18167;-74
2023/12/20 00:30:51;;;;;;;1.65;1.17;;;;;;;5.60;100.00;99523.34;336109;28;4693;-75
2023/12/20 00:31:04;;;;;;;2.03;1.33;;;;;;;5.63;100.00;99532.75;334156;28;18166;-74
2023/12/20 00:31:16;;;;;;;1.98;1.27;;;;;;;5.63;100.00;99527.59;338494;28;4554;-74
2023/12/20 00:31:28;;;;;;;1.77;1.13;;;;;;;5.56;100.00;99532.84;335952;28;18060;-74
2023/12/20 00:31:40;;;;;;;1.85;1.17;;;;;;;5.49;100.00;99531.22;336449;28;4533;-75
2023/12/20 00:31:52;;;;;;;1.95;1.30;;;;;;;5.51;100.00;99528.63;335605;28;4719;-75
2023/12/20 00:32:05;;;;;;;1.63;1.27;;;;;;;5.50;100.00;99532.09;327918;28;13064;-74
2023/12/20 00:32:17;;;;;;;1.30;1.00;;;;;;;5.52;100.00;99541.50;336409;28;5410;-74
2023/12/20 00:32:29;;;;;;;1.30;1.00;;;;;;;5.49;100.00;99541.53;328453;28;18848;-75
2023/12/20 00:32:46;;;;;;;2.80;1.20;;;;;;;5.54;100.00;99529.44;335033;28;5436;-74
2023/12/20 00:32:58;;;;;;;2.73;1.00;;;;;;;5.54;100.00;99533.75;332630;28;17831;-74
2023/12/20 00:33:10;;;;;;;2.03;1.10;;;;;;;5.56;100.00;99537.16;333171;28;17958;-75
2023/12/20 00:33:22;;;;;;;2.03;1.13;;;;;;;5.56;100.00;99542.31;337934;28;4539;-74
2023/12/20 00:33:34;;;;;;;1.63;1.17;;;;;;;5.55;100.00;99536.31;334068;28;5271;-74
2023/12/20 00:33:47;;;;;;;2.03;1.17;;;;;;;5.60;100.00;99541.41;336178;28;4849;-75
2023/12/20 00:33:59;;;;;;;1.90;1.10;;;;;;;5.53;100.00;99535.47;332723;28;14071;-74
2023/12/20 00:34:11;;;;;;;2.22;1.20;;;;;;;5.58;100.00;99530.25;336231;28;5050;-74
2023/12/20 00:34:24;;;;;;;2.15;1.17;;;;;;;5.56;100.00;99537.16;333600;28;5309;-74
2023/12/20 00:34:36;;;;;;;2.58;1.40;;;;;;;5.54;100.00;99529.44;336392;28;4505;-75
2023/12/20 00:34:48;;;;;;;2.45;1.30;;;;;;;5.59;100.00;99532.81;336261;28;4717;-75
2023/12/20 00:35:00;;;;;;;2.88;1.25;;;;;;;5.56;100.00;99537.16;333251;28;13341;-75
2023/12/20 00:35:13;;;;;;;3.78;1.60;;;;;;;5.58;100.00;99540.56;332811;28;17944;-75
2023/12/20 00:35:25;;;;;;;3.38;1.70;;;;;;;5.54;100.00;99534.59;332145;28;18723;-74
2023/12/20 00:35:37;;;;;;;2.55;1.50;;;;;;;5.48;100.00;99539.00;335983;28;5481;-75
2023/12/20 00:35:49;;;;;;;1.70;1.17;;;;;;;5.51;100.00;99534.63;335387;28;5095;-74
2023/12/20 00:36:01;;;;;;;1.85;1.30;;;;;;;5.57;100.00;99539.72;331862;28;15803;-74
2023/12/20 00:36:14;;;;;;;1.80;1.27;;;;;;;5.57;100.00;99544.88;336717;28;5352;-75
2023/12/20 00:36:26;;;;;;;1.70;1.13;;;;;;;5.59;100.00;99535.41;327793;28;13677;-75
2023/12/20 00:36:38;;;;;;;1.25;1.10;;;;;;;5.67;100.00;99532.69;335886;28;4720;-74
2023/12/20 00:36:50;;;;;;;1.33;1.13;;;;;;;5.68;100.00;99536.13;333217;28;12166;-75
2023/12/20 00:37:02;;;;;;;1.27;1.10;;;;;;;5.68;100.00;99542.13;332068;28;18725;-75
2023/12/20 00:37:14;;;;;;;1.70;1.33;;;;;;;5.67;100.00;99529.25;335892;28;4518;-74
2023/12/20 00:37:26;;;;;;;2.10;1.48;;;;;;;5.67;100.00;99530.09;333117;28;18627;-75
2023/12/20 00:37:38;;;;;;;2.03;1.38;;;;;;;5.63;100.00;99527.59;336983;28;4524;-75
2023/12/20 00:37:50;;;;;;;1.80;1.23;;;;;;;5.60;100.00;99529.34;335267;28;4726;-74
2023/12/20 00:38:02;;;;;;;1.55;1.08;;;;;;;5.65;100.00;99531.00;328667;28;10988;-74
2023/12/20 00:38:14;;;;;;;1.48;0.98;;;;;;;5.65;100.00;99526.69;336165;28;5426;-75
2023/12/20 00:38:26;;;;;;;1.33;0.90;;;;;;;5.65;100.00;99531.00;332884;28;18424;-75
2023/12/20 00:38:38;;;;;;;1.40;0.90;;;;;;;5.67;100.00;99534.41;337176;28;4703;-75
2023/12/20 00:38:51;;;;;;;1.40;0.93;;;;;;;5.52;100.00;99533.75;336058;28;4821;-75
2023/12/20 00:39:04;;;;;;;1.63;1.20;;;;;;;5.54;100.00;99534.59;332720;28;17833;-74
2023/12/20 00:39:16;;;;;;;1.85;1.20;;;;;;;5.54;100.00;99539.75;334497;28;8513;-75
2023/12/20 00:39:28;;;;;;;1.88;1.17;;;;;;;5.55;100.00;99520.84;332326;28;18231;-74
2023/12/20 00:39:40;;;;;;;1.85;1.20;;;;;;;5.63;100.00;99537.91;331789;28;4610;-74
2023/12/20 00:39:52;;;;;;;1.63;1.10;;;;;;;5.62;100.00;99533.66;333046;28;13876;-74
2023/12/20 00:40:05;;;;;;;1.75;1.05;;;;;;;5.56;100.00;99535.41;335214;28;5180;-74
2023/12/20 00:40:17;;;;;;;1.77;1.00;;;;;;;5.64;100.00;99526.75;325956;29;5310;-74
2023/12/20 00:40:29;;;;;;;1.85;1.10;;;;;;;5.62;100.00;99524.19;334693;29;5423;-74
2023/12/20 00:40:41;;;;;;;2.10;1.30;;;;;;;5.59;100.00;99525.06;334342;29;4796;-74
2023/12/20 00:40:53;;;;;;;2.13;1.40;;;;;;;5.58;100.00;99538.81;331287;28;18105;-74
2023/12/20 00:41:05;;;;;;;2.40;1.67;;;;;;;5.62;100.00;99531.06;334516;29;5895;-74
2023/12/20 00:41:17;;;;;;;2.10;1.35;;;;;;;5.58;100.00;99538.00;328263;29;13210;-75
2023/12/20 00:41:29;;;;;;;1.60;1.08;;;;;;;5.63;100.00;99543.06;333696;29;5916;-75
2023/12/20 00:41:41;;;;;;;1.10;0.82;;;;;;;5.57;100.00;99542.28;335301;28;4725;-75
2023/12/20 00:41:53;;;;;;;1.33;0.98;;;;;;;5.64;100.00;99530.16;331628;28;18400;-75
2023/12/20 00:42:05;;;;;;;1.67;1.08;;;;;;;5.58;100.00;99528.50;335770;28;4717;-75
2023/12/20 00:42:17;;;;;;;1.92;1.20;;;;;;;5.50;100.00;99538.09;336082;28;4732;-75
2023/12/20 00:42:29;;;;;;;1.92;1.40;;;;;;;5.53;100.00;99526.88;328781;28;18094;-74
2023/12/20 00:42:41;;;;;;;1.98;1.48;;;;;;;5.50;100.00;99532.94;337072;28;4831;-74
2023/12/20 00:42:53;;;;;;;1.85;1.40;;;;;;;5.50;100.00;99530.34;332262;28;17883;-74
2023/12/20 00:43:05;;;;;;;2.17;1.38;;;;;;;5.51;100.00;99533.78;335658;28;5464;-74
2023/12/20 00:43:17;;;;;;;1.90;1.00;;;;;;;5.56;100.00;99537.16;335464;28;13350;-74
2023/12/20 00:43:30;;;;;;;2.88;0.90;;;;;;;5.57;100.00;99529.41;333871;28;18126;-74
2023/12/20 00:43:42;;;;;;;2.70;1.02;;;;;;;5.56;100.00;99521.69;336295;28;5356;-74
2023/12/20 00:43:54;;;;;;;3.85;1.38;;;;;;;5.57;100.00;99534.56;332283;28;18157;-74
2023/12/20 00:44:06;;;;;;;4.00;1.40;;;;;;;5.59;100.00;99537.97;334545;28;5604;-75
2023/12/20 00:44:18;;;;;;;3.83;1.45;;;;;;;5.59;100.00;99530.25;333571;28;13616;-75
2023/12/20 00:44:30;;;;;;;2.30;1.10;;;;;;;5.55;100.00;99531.16;337510;28;4550;-75
2023/12/20 00:44:42;;;;;;;2.10;1.13;;;;;;;5.50;100.00;99532.09;334644;28;5028;-75
2023/12/20 00:44:54;;;;;;;2.00;1.30;;;;;;;5.48;100.00;99521.78;332851;28;18185;-74
2023/12/20 00:45:06;;;;;;;1.92;1.42;;;;;;;5.50;100.00;99538.09;337225;28;4771;-74
2023/12/20 00:45:18;;;;;;;2.60;1.40;;;;;;;5.59;100.00;99530.25;336243;28;4796;-74
2023/12/20 00:45:30;;;;;;;2.78;1.50;;;;;;;5.57;100.00;99533.69;338432;28;4838;-74
2023/12/20 00:45:42;;;;;;;3.63;1.67;;;;;;;5.54;100.00;99532.00;335788;28;5420;-74
2023/12/20 00:45:55;;;;;;;2.75;1.33;;;;;;;5.69;100.00;99527.50;333729;28;18154;-74
2023/12/20 00:46:07;;;;;;;1.60;1.00;;;;;;;5.64;100.00;99524.16;336958;28;5759;-74
2023/12/20 00:46:19;;;;;;;1.83;0.90;;;;;;;5.59;100.00;99525.06;333315;28;17859;-74
2023/12/20 00:46:32;;;;;;;1.60;0.90;;;;;;;5.57;100.00;99521.66;334626;29;4601;-74
2023/12/20 00:46:44;;;;;;;1.40;0.98;;;;;;;5.57;100.00;99519.09;332722;28;13796;-74
2023/12/20 00:46:56;;;;;;;1.85;1.40;;;;;;;5.55;100.00;99520.84;334094;28;4637;-75
2023/12/20 00:47:08;;;;;;;2.55;1.67;;;;;;;5.59;100.00;99527.66;335031;28;7090;-75
2023/12/20 00:47:20;;;;;;;2.38;1.50;;;;;;;5.63;100.00;99514.69;331702;28;18139;-75
2023/12/20 00:47:32;;;;;;;1.63;1.20;;;;;;;5.60;100.00;99533.66;334324;28;5642;-75
2023/12/20 00:47:45;;;;;;;1.63;1.10;;;;;;;5.58;100.00;99527.66;332022;28;13192;-75
2023/12/20 00:47:59;;;;;;;2.13;1.23;;;;;;;5.59;100.00;99521.63;335451;28;5441;-75
2023/12/20 00:48:11;;;;;;;2.67;1.30;;;;;;;5.62;100.00;99520.75;328615;28;17969;-75
2023/12/20 00:48:23;;;;;;;2.80;1.27;;;;;;;5.59;100.00;99522.50;334852;28;4550;-75
2023/12/20 00:48:35;;;;;;;2.10;1.13;;;;;;;5.61;100.00;99525.03;332407;28;18124;-75
2023/12/20 00:48:47;;;;;;;2.65;1.20;;;;;;;5.56;100.00;99521.69;336538;28;4589;-75
2023/12/20 00:48:59;;;;;;;2.13;1.10;;;;;;;5.67;100.00;99518.94;332855;28;16655;-75
2023/12/20 00:49:11;;;;;;;1.98;1.17;;;;;;;5.69;100.00;99525.78;337141;28;4948;-75
2023/12/20 00:49:23;;;;;;;1.65;1.20;;;;;;;5.70;100.00;99527.50;336118;28;4624;-75
2023/12/20 00:49:36;;;;;;;1.50;1.17;;;;;;;5.69;100.00;99527.50;333266;28;18103;-75
2023/12/20 00:49:48;;;;;;;1.83;1.10;;;;;;;5.73;100.00;99509.38;332264;28;5284;-75
2023/12/20 00:50:00;;;;;;;2.05;1.25;;;;;;;5.72;100.00;99522.31;333525;28;8576;-74
2023/12/20 00:50:12;;;;;;;2.08;1.30;;;;;;;5.70;100.00;99518.91;336625;28;5036;-74
2023/12/20 00:50:25;;;;;;;2.05;1.30;;;;;;;5.70;100.00;99519.75;333975;28;4716;-75
2023/12/20 00:50:41;;;;;;;2.33;1.27;;;;;;;5.72;100.00;99522.31;333180;28;18176;-75
2023/12/20 00:50:53;;;;;;;2.60;1.23;;;;;;;5.72;100.00;99517.16;333534;28;4545;-75
2023/12/20 00:51:06;;;;;;;2.60;1.15;;;;;;;5.70;100.00;99522.34;329161;28;5385;-75
2023/12/20 00:51:18;;;;;;;2.53;1.13;;;;;;;5.64;100.00;99517.28;337653;28;4599;-75
2023/12/20 00:51:30;;;;;;;2.50;1.30;;;;;;;5.63;100.00;99528.44;335684;28;5432;-75
2023/12/20 00:51:42;;;;;;;2.60;1.20;;;;;;;5.66;100.00;99512.94;336477;28;5288;-75
2023/12/20 00:51:54;;;;;;;2.67;1.25;;;;;;;5.70;100.00;99521.50;334542;28;5184;-75
2023/12/20 00:52:06;;;;;;;2.15;1.25;;;;;;;5.68;100.00;99525.81;333986;28;4708;-75
2023/12/20 00:52:18;;;;;;;1.38;1.05;;;;;;;5.71;100.00;99512.88;336959;28;5010;-75
2023/12/20 00:52:30;;;;;;;1.17;0.93;;;;;;;5.69;100.00;99517.19;336234;28;5516;-75
2023/12/20 00:52:42;;;;;;;1.58;1.15;;;;;;;5.66;100.00;99512.09;333620;28;17705;-75
2023/12/20 00:52:54;;;;;;;1.55;1.10;;;;;;;5.70;100.00;99521.50;335755;28;5647;-75
2023/12/20 00:53:06;;;;;;;1.73;1.13;;;;;;;5.71;100.00;99515.44;333759;28;4765;-75
2023/12/20 00:53:18;;;;;;;1.40;1.00;;;;;;;5.67;100.00;99519.78;336553;28;4608;-75
2023/12/20 00:53:30;;;;;;;1.45;0.98;;;;;;;5.67;100.00;99524.09;336373;28;4534;-75
2023/12/20 00:53:43;;;;;;;1.58;1.05;;;;;;;5.65;100.00;99525.84;332823;28;18750;-75
2023/12/20 00:53:55;;;;;;;1.77;1.02;;;;;;;5.65;100.00;99516.38;335052;28;5124;-75
2023/12/20 00:54:07;;;;;;;2.08;1.17;;;;;;;5.62;100.00;99515.59;333924;28;17828;-75
2023/12/20 00:54:19;;;;;;;1.83;1.25;;;;;;;5.64;100.00;99509.53;336059;28;5234;-75
2023/12/20 00:54:31;;;;;;;1.58;1.23;;;;;;;5.57;100.00;99524.25;333220;28;12887;-75
2023/12/20 00:54:44;;;;;;;1.30;1.08;;;;;;;5.66;100.00;99512.09;335232;29;5534;-75
2023/12/20 00:54:56;;;;;;;1.52;1.10;;;;;;;5.57;100.00;99521.66;332694;28;14246;-75
2023/12/20 00:55:08;;;;;;;2.03;1.40;;;;;;;5.59;100.00;99519.91;336277;28;4907;-75
2023/12/20 00:55:20;;;;;;;1.83;1.30;;;;;;;5.59;100.00;99514.75;335010;28;4776;-75
2023/12/20 00:55:32;;;;;;;1.38;1.00;;;;;;;5.58;100.00;99523.34;334641;28;13899;-75
2023/12/20 00:55:45;;;;;;;1.38;1.05;;;;;;;5.60;100.00;99524.19;334085;28;17939;-75
2023/12/20 00:55:58;;;;;;;2.10;1.20;;;;;;;5.55;100.00;99520.84;332163;28;14272;-75
2023/12/20 00:56:10;;;;;;;2.30;1.23;;;;;;;5.59;100.00;99522.50;335800;28;4650;-75
2023/12/20 00:56:22;;;;;;;2.13;1.13;;;;;;;5.53;100.00;99532.91;332623;28;18022;-75
2023/12/20 00:56:35;;;;;;;2.55;1.25;;;;;;;5.49;100.00;99526.06;336289;28;4723;-75
2023/12/20 00:56:47;;;;;;;3.00;1.50;;;;;;;5.50;100.00;99527.78;334002;28;5492;-75
2023/12/20 00:56:59;;;;;;;2.92;1.40;;;;;;;5.54;100.00;99521.69;330693;28;4584;-75
2023/12/20 00:57:11;;;;;;;2.75;1.10;;;;;;;5.51;100.00;99532.03;335594;28;5270;-75
2023/12/20 00:57:23;;;;;;;2.35;1.30;;;;;;;5.55;100.00;99528.56;334807;28;17871;-75
2023/12/20 00:57:35;;;;;;;1.50;1.20;;;;;;;5.60;100.00;99516.44;332281;28;5581;-76
2023/12/20 00:57:47;;;;;;;1.77;1.27;;;;;;;5.60;100.00;99528.50;333048;28;17039;-76
2023/12/20 00:58:00;;;;;;;1.55;1.00;;;;;;;5.55;100.00;99515.69;335143;28;5296;-75
2023/12/20 00:58:12;;;;;;;1.40;1.00;;;;;;;5.55;100.00;99518.25;335365;28;4587;-75
2023/12/20 00:58:24;;;;;;;2.10;1.23;;;;;;;5.55;100.00;99530.28;334695;28;18182;-75
2023/12/20 00:58:36;;;;;;;2.47;1.45;;;;;;;5.50;100.00;99522.63;335732;28;5484;-75
2023/12/20 00:58:48;;;;;;;2.17;1.45;;;;;;;5.47;100.00;99496.88;333365;28;17844;-75